Terminal Aerodrome Forecast
Issued by NWS

Home | Current Version | Previous Version | Graphics & Text | Print | Product List | Glossary On
Versions: 1 2 3 4 5 6 7 8 9 10 11 12 13 14 15 16 17 18 19 20 21
768
FTUS43 KMPX 141723
TAFAXN
TAF
KAXN 141723Z 1418/1518 32010KT P6SM -SHSN OVC015
     FM142100 32013KT P6SM -SHSN OVC015
     FM150300 31010KT P6SM BKN040
     FM151000 28007KT P6SM VCSH OVC015
     FM151200 29005KT P6SM -SHSN OVC008
     FM151600 25005KT P6SM OVC010=

USA.gov is the U.S. government's official web portal to all federal, state and local government web resources and services.